< < Back
Terminal Aerodrome Forecast


Current Version              Previous Versions:   1  2  3  4  5  6  7  8  9  

Terminal Aerodrome Forecast

721
FTUS42 KFFC 012100 AAB
TAFATL
TAF AMD
KATL 012130Z 0122/0224 20005KT P6SM VCSH SCT040 BKN070
      TEMPO 0122/0124 VRB10G20KT 5SM TSRA BKN040CB
     FM020100 VRB03KT P6SM FEW060 SCT150 BKN250
     FM021400 29006KT P6SM SCT035 SCT150
     FM021800 27007KT P6SM SCT050 SCT150 PROB30 0219/0223 5SM TSRA
      BKN045CB=

Latest METAR

157
SAUS70 KWBC 020200 RRE
MTRATL
METAR KATL 020152Z 21004KT 10SM FEW080 SCT150 BKN200 BKN250 24/22 A3012
RMK AO2 SLP188 T02440222


USA.gov is the U.S. government's official web portal to all federal, state and local government web resources and services.